sensor_id;sensor_type;location;lat;lon;timestamp;P1;durP1;ratioP1;P2;durP2;ratioP2
17235;SDS011;8734;59.272;17.780;2022-08-05T00:01:29;13.90;;;9.57;;
17235;SDS011;8734;59.272;17.780;2022-08-05T00:04:14;15.17;;;9.43;;
17235;SDS011;8734;59.272;17.780;2022-08-05T00:06:42;15.33;;;9.97;;
17235;SDS011;8734;59.272;17.780;2022-08-05T00:09:14;24.90;;;10.20;;
17235;SDS011;8734;59.272;17.780;2022-08-05T00:11:45;18.33;;;10.23;;
17235;SDS011;8734;59.272;17.780;2022-08-05T00:14:25;15.23;;;9.87;;
17235;SDS011;8734;59.272;17.780;2022-08-05T00:16:57;15.17;;;10.27;;
17235;SDS011;8734;59.272;17.780;2022-08-05T00:19:28;16.17;;;10.20;;
17235;SDS011;8734;59.272;17.780;2022-08-05T00:22:06;15.83;;;10.37;;
17235;SDS011;8734;59.272;17.780;2022-08-05T00:24:38;16.23;;;9.80;;
17235;SDS011;8734;59.272;17.780;2022-08-05T00:27:08;18.40;;;10.67;;
17235;SDS011;8734;59.272;17.780;2022-08-05T00:29:42;16.73;;;10.30;;
17235;SDS011;8734;59.272;17.780;2022-08-05T00:32:10;17.97;;;11.43;;
17235;SDS011;8734;59.272;17.780;2022-08-05T00:34:41;17.40;;;11.37;;
17235;SDS011;8734;59.272;17.780;2022-08-05T00:37:30;18.97;;;11.83;;
17235;SDS011;8734;59.272;17.780;2022-08-05T00:40:21;17.17;;;11.60;;
17235;SDS011;8734;59.272;17.780;2022-08-05T00:42:54;25.90;;;12.63;;
17235;SDS011;8734;59.272;17.780;2022-08-05T00:45:24;19.27;;;12.90;;
17235;SDS011;8734;59.272;17.780;2022-08-05T00:48:04;22.60;;;12.17;;
17235;SDS011;8734;59.272;17.780;2022-08-05T00:50:35;14.13;;;11.80;;
17235;SDS011;8734;59.272;17.780;2022-08-05T00:53:09;21.97;;;12.40;;
17235;SDS011;8734;59.272;17.780;2022-08-05T00:55:59;15.63;;;11.50;;
17235;SDS011;8734;59.272;17.780;2022-08-05T00:58:27;21.50;;;12.27;;
17235;SDS011;8734;59.272;17.780;2022-08-05T01:00:56;16.60;;;11.67;;
17235;SDS011;8734;59.272;17.780;2022-08-05T01:03:26;17.00;;;11.40;;
17235;SDS011;8734;59.272;17.780;2022-08-05T01:05:59;17.70;;;11.70;;
17235;SDS011;8734;59.272;17.780;2022-08-05T01:08:30;19.07;;;11.90;;
17235;SDS011;8734;59.272;17.780;2022-08-05T01:11:12;21.40;;;11.27;;
17235;SDS011;8734;59.272;17.780;2022-08-05T01:13:53;16.97;;;11.60;;
17235;SDS011;8734;59.272;17.780;2022-08-05T01:16:28;18.30;;;12.13;;
17235;SDS011;8734;59.272;17.780;2022-08-05T01:19:10;16.17;;;11.80;;
17235;SDS011;8734;59.272;17.780;2022-08-05T01:22:14;17.93;;;11.80;;
17235;SDS011;8734;59.272;17.780;2022-08-05T01:24:58;16.97;;;11.10;;
17235;SDS011;8734;59.272;17.780;2022-08-05T01:27:53;25.00;;;12.27;;
17235;SDS011;8734;59.272;17.780;2022-08-05T01:30:35;23.77;;;12.23;;
17235;SDS011;8734;59.272;17.780;2022-08-05T01:33:20;20.97;;;11.33;;
17235;SDS011;8734;59.272;17.780;2022-08-05T01:35:51;19.20;;;11.43;;
17235;SDS011;8734;59.272;17.780;2022-08-05T01:38:23;19.57;;;12.50;;
17235;SDS011;8734;59.272;17.780;2022-08-05T01:40:56;16.10;;;11.80;;
17235;SDS011;8734;59.272;17.780;2022-08-05T01:43:28;21.83;;;12.17;;
17235;SDS011;8734;59.272;17.780;2022-08-05T01:46:00;19.27;;;11.10;;
17235;SDS011;8734;59.272;17.780;2022-08-05T01:48:42;15.50;;;11.40;;
17235;SDS011;8734;59.272;17.780;2022-08-05T01:51:15;19.63;;;11.57;;
17235;SDS011;8734;59.272;17.780;2022-08-05T01:53:45;21.27;;;12.77;;
17235;SDS011;8734;59.272;17.780;2022-08-05T01:56:24;21.07;;;12.60;;
17235;SDS011;8734;59.272;17.780;2022-08-05T01:59:18;19.43;;;12.73;;
17235;SDS011;8734;59.272;17.780;2022-08-05T02:01:49;23.40;;;13.20;;
17235;SDS011;8734;59.272;17.780;2022-08-05T02:04:23;19.67;;;13.83;;
17235;SDS011;8734;59.272;17.780;2022-08-05T02:06:55;19.20;;;11.40;;
17235;SDS011;8734;59.272;17.780;2022-08-05T02:09:24;29.83;;;13.63;;
17235;SDS011;8734;59.272;17.780;2022-08-05T02:11:54;26.00;;;13.07;;
17235;SDS011;8734;59.272;17.780;2022-08-05T02:14:31;21.80;;;13.40;;
17235;SDS011;8734;59.272;17.780;2022-08-05T02:17:06;22.57;;;12.53;;
17235;SDS011;8734;59.272;17.780;2022-08-05T02:19:59;22.90;;;11.90;;
17235;SDS011;8734;59.272;17.780;2022-08-05T02:22:32;22.70;;;12.33;;
17235;SDS011;8734;59.272;17.780;2022-08-05T02:25:07;17.17;;;13.03;;
17235;SDS011;8734;59.272;17.780;2022-08-05T02:27:43;20.93;;;12.40;;
17235;SDS011;8734;59.272;17.780;2022-08-05T02:30:28;21.37;;;12.60;;
17235;SDS011;8734;59.272;17.780;2022-08-05T02:33:02;18.57;;;12.50;;
17235;SDS011;8734;59.272;17.780;2022-08-05T02:35:32;26.17;;;12.63;;
17235;SDS011;8734;59.272;17.780;2022-08-05T02:38:16;22.87;;;13.07;;
17235;SDS011;8734;59.272;17.780;2022-08-05T02:40:52;19.27;;;13.00;;
17235;SDS011;8734;59.272;17.780;2022-08-05T02:43:22;21.40;;;13.30;;
17235;SDS011;8734;59.272;17.780;2022-08-05T02:45:55;22.80;;;13.27;;
17235;SDS011;8734;59.272;17.780;2022-08-05T02:48:27;23.73;;;13.17;;
17235;SDS011;8734;59.272;17.780;2022-08-05T02:50:57;20.23;;;12.33;;
17235;SDS011;8734;59.272;17.780;2022-08-05T02:53:26;19.50;;;12.30;;
17235;SDS011;8734;59.272;17.780;2022-08-05T02:56:05;18.63;;;12.73;;
17235;SDS011;8734;59.272;17.780;2022-08-05T02:58:43;18.13;;;13.23;;
17235;SDS011;8734;59.272;17.780;2022-08-05T03:01:21;17.90;;;11.87;;
17235;SDS011;8734;59.272;17.780;2022-08-05T03:03:53;25.37;;;12.00;;
17235;SDS011;8734;59.272;17.780;2022-08-05T03:06:34;22.47;;;11.40;;
17235;SDS011;8734;59.272;17.780;2022-08-05T03:09:24;22.97;;;12.83;;
17235;SDS011;8734;59.272;17.780;2022-08-05T03:12:04;14.83;;;11.77;;
17235;SDS011;8734;59.272;17.780;2022-08-05T03:14:33;14.87;;;11.60;;
17235;SDS011;8734;59.272;17.780;2022-08-05T03:17:12;19.00;;;12.07;;
17235;SDS011;8734;59.272;17.780;2022-08-05T03:19:41;17.37;;;11.60;;
17235;SDS011;8734;59.272;17.780;2022-08-05T03:22:11;14.27;;;11.00;;
17235;SDS011;8734;59.272;17.780;2022-08-05T03:24:44;18.97;;;12.27;;
17235;SDS011;8734;59.272;17.780;2022-08-05T03:27:17;16.33;;;11.60;;
17235;SDS011;8734;59.272;17.780;2022-08-05T03:29:47;22.50;;;12.47;;
17235;SDS011;8734;59.272;17.780;2022-08-05T03:32:35;16.17;;;12.60;;
17235;SDS011;8734;59.272;17.780;2022-08-05T03:35:06;22.30;;;12.93;;
17235;SDS011;8734;59.272;17.780;2022-08-05T03:37:35;19.40;;;11.93;;
17235;SDS011;8734;59.272;17.780;2022-08-05T03:40:12;22.53;;;13.57;;
17235;SDS011;8734;59.272;17.780;2022-08-05T03:42:57;19.30;;;12.93;;
17235;SDS011;8734;59.272;17.780;2022-08-05T03:45:41;21.10;;;13.63;;
17235;SDS011;8734;59.272;17.780;2022-08-05T03:48:25;18.07;;;13.63;;
17235;SDS011;8734;59.272;17.780;2022-08-05T03:50:56;26.53;;;14.77;;
17235;SDS011;8734;59.272;17.780;2022-08-05T03:53:51;27.67;;;14.23;;
17235;SDS011;8734;59.272;17.780;2022-08-05T03:56:43;21.93;;;15.40;;
17235;SDS011;8734;59.272;17.780;2022-08-05T03:59:16;22.67;;;15.13;;
17235;SDS011;8734;59.272;17.780;2022-08-05T04:01:49;25.77;;;15.83;;
17235;SDS011;8734;59.272;17.780;2022-08-05T04:04:26;21.87;;;15.70;;
17235;SDS011;8734;59.272;17.780;2022-08-05T04:06:56;26.53;;;16.80;;
17235;SDS011;8734;59.272;17.780;2022-08-05T04:09:25;21.17;;;16.37;;
17235;SDS011;8734;59.272;17.780;2022-08-05T04:12:02;30.40;;;17.17;;
17235;SDS011;8734;59.272;17.780;2022-08-05T04:14:50;28.77;;;16.57;;
17235;SDS011;8734;59.272;17.780;2022-08-05T04:17:22;35.13;;;17.97;;
17235;SDS011;8734;59.272;17.780;2022-08-05T04:20:17;27.67;;;17.90;;
17235;SDS011;8734;59.272;17.780;2022-08-05T04:22:48;33.03;;;17.97;;
17235;SDS011;8734;59.272;17.780;2022-08-05T04:25:17;28.17;;;18.00;;
17235;SDS011;8734;59.272;17.780;2022-08-05T04:28:03;30.07;;;18.57;;
17235;SDS011;8734;59.272;17.780;2022-08-05T04:30:38;31.93;;;20.30;;
17235;SDS011;8734;59.272;17.780;2022-08-05T04:33:08;32.07;;;19.80;;
17235;SDS011;8734;59.272;17.780;2022-08-05T04:35:38;29.73;;;20.17;;
17235;SDS011;8734;59.272;17.780;2022-08-05T04:38:27;33.57;;;21.63;;
17235;SDS011;8734;59.272;17.780;2022-08-05T04:41:05;32.20;;;20.90;;
17235;SDS011;8734;59.272;17.780;2022-08-05T04:43:35;31.70;;;23.07;;
17235;SDS011;8734;59.272;17.780;2022-08-05T04:46:13;30.90;;;21.27;;
17235;SDS011;8734;59.272;17.780;2022-08-05T04:48:54;35.20;;;21.10;;
17235;SDS011;8734;59.272;17.780;2022-08-05T04:51:25;32.60;;;23.43;;
17235;SDS011;8734;59.272;17.780;2022-08-05T04:53:55;42.33;;;24.43;;
17235;SDS011;8734;59.272;17.780;2022-08-05T04:56:26;39.60;;;25.20;;
17235;SDS011;8734;59.272;17.780;2022-08-05T04:59:00;40.13;;;27.40;;
17235;SDS011;8734;59.272;17.780;2022-08-05T05:01:49;40.67;;;27.40;;
17235;SDS011;8734;59.272;17.780;2022-08-05T05:04:37;40.47;;;26.70;;
17235;SDS011;8734;59.272;17.780;2022-08-05T05:07:14;47.50;;;27.83;;
17235;SDS011;8734;59.272;17.780;2022-08-05T05:09:49;37.73;;;24.63;;
17235;SDS011;8734;59.272;17.780;2022-08-05T05:12:19;44.73;;;26.40;;
17235;SDS011;8734;59.272;17.780;2022-08-05T05:14:52;42.10;;;25.50;;
17235;SDS011;8734;59.272;17.780;2022-08-05T05:17:20;37.47;;;24.20;;
17235;SDS011;8734;59.272;17.780;2022-08-05T05:20:09;41.93;;;26.13;;
17235;SDS011;8734;59.272;17.780;2022-08-05T05:22:40;44.80;;;25.77;;
17235;SDS011;8734;59.272;17.780;2022-08-05T05:25:09;44.97;;;24.23;;
17235;SDS011;8734;59.272;17.780;2022-08-05T05:27:43;33.50;;;23.63;;
17235;SDS011;8734;59.272;17.780;2022-08-05T05:30:19;34.80;;;24.67;;
17235;SDS011;8734;59.272;17.780;2022-08-05T05:32:57;34.83;;;23.67;;
17235;SDS011;8734;59.272;17.780;2022-08-05T05:35:41;38.43;;;25.27;;
17235;SDS011;8734;59.272;17.780;2022-08-05T05:38:12;37.40;;;24.83;;
17235;SDS011;8734;59.272;17.780;2022-08-05T05:40:52;41.83;;;24.70;;
17235;SDS011;8734;59.272;17.780;2022-08-05T05:43:21;31.87;;;21.87;;
17235;SDS011;8734;59.272;17.780;2022-08-05T05:46:09;30.27;;;21.80;;
17235;SDS011;8734;59.272;17.780;2022-08-05T05:48:44;37.40;;;23.30;;
17235;SDS011;8734;59.272;17.780;2022-08-05T05:51:18;36.10;;;22.03;;
17235;SDS011;8734;59.272;17.780;2022-08-05T05:53:49;33.33;;;22.03;;
17235;SDS011;8734;59.272;17.780;2022-08-05T05:56:24;31.30;;;19.27;;
17235;SDS011;8734;59.272;17.780;2022-08-05T05:59:00;28.90;;;19.20;;
17235;SDS011;8734;59.272;17.780;2022-08-05T06:01:30;26.10;;;19.40;;
17235;SDS011;8734;59.272;17.780;2022-08-05T06:04:04;24.57;;;17.27;;
17235;SDS011;8734;59.272;17.780;2022-08-05T06:06:37;27.53;;;17.10;;
17235;SDS011;8734;59.272;17.780;2022-08-05T06:09:09;27.37;;;18.30;;
17235;SDS011;8734;59.272;17.780;2022-08-05T06:11:43;25.40;;;15.93;;
17235;SDS011;8734;59.272;17.780;2022-08-05T06:14:28;24.03;;;14.53;;
17235;SDS011;8734;59.272;17.780;2022-08-05T06:16:56;20.20;;;15.20;;
17235;SDS011;8734;59.272;17.780;2022-08-05T06:19:27;18.23;;;13.40;;
17235;SDS011;8734;59.272;17.780;2022-08-05T06:22:01;21.27;;;14.70;;
17235;SDS011;8734;59.272;17.780;2022-08-05T06:24:34;24.50;;;13.93;;
17235;SDS011;8734;59.272;17.780;2022-08-05T06:27:13;20.30;;;14.40;;
17235;SDS011;8734;59.272;17.780;2022-08-05T06:30:02;19.37;;;13.33;;
17235;SDS011;8734;59.272;17.780;2022-08-05T06:32:46;24.87;;;13.47;;
17235;SDS011;8734;59.272;17.780;2022-08-05T06:35:16;17.73;;;14.10;;
17235;SDS011;8734;59.272;17.780;2022-08-05T06:38:04;25.23;;;14.37;;
17235;SDS011;8734;59.272;17.780;2022-08-05T06:40:38;19.07;;;13.47;;
17235;SDS011;8734;59.272;17.780;2022-08-05T06:43:10;18.80;;;12.50;;
17235;SDS011;8734;59.272;17.780;2022-08-05T06:45:58;21.83;;;12.97;;
17235;SDS011;8734;59.272;17.780;2022-08-05T06:48:32;21.70;;;13.27;;
17235;SDS011;8734;59.272;17.780;2022-08-05T06:51:22;15.83;;;13.40;;
17235;SDS011;8734;59.272;17.780;2022-08-05T06:53:55;16.37;;;12.47;;
17235;SDS011;8734;59.272;17.780;2022-08-05T06:56:26;19.03;;;11.80;;
17235;SDS011;8734;59.272;17.780;2022-08-05T06:58:55;16.73;;;10.97;;
17235;SDS011;8734;59.272;17.780;2022-08-05T07:01:23;15.60;;;11.83;;
17235;SDS011;8734;59.272;17.780;2022-08-05T07:03:58;17.43;;;12.37;;
17235;SDS011;8734;59.272;17.780;2022-08-05T07:06:28;17.63;;;11.53;;
17235;SDS011;8734;59.272;17.780;2022-08-05T07:08:57;15.00;;;10.87;;
17235;SDS011;8734;59.272;17.780;2022-08-05T07:11:31;14.03;;;11.03;;
17235;SDS011;8734;59.272;17.780;2022-08-05T07:14:04;12.73;;;10.03;;
17235;SDS011;8734;59.272;17.780;2022-08-05T07:16:56;14.53;;;10.57;;
17235;SDS011;8734;59.272;17.780;2022-08-05T07:19:48;12.23;;;10.13;;
17235;SDS011;8734;59.272;17.780;2022-08-05T07:22:38;14.90;;;9.30;;
17235;SDS011;8734;59.272;17.780;2022-08-05T07:25:07;14.07;;;10.47;;
17235;SDS011;8734;59.272;17.780;2022-08-05T07:27:57;13.30;;;9.93;;
17235;SDS011;8734;59.272;17.780;2022-08-05T07:30:35;11.53;;;7.43;;
17235;SDS011;8734;59.272;17.780;2022-08-05T07:33:06;14.25;;;8.18;;
17235;SDS011;8734;59.272;17.780;2022-08-05T07:35:42;8.20;;;7.30;;
17235;SDS011;8734;59.272;17.780;2022-08-05T07:38:30;8.68;;;7.32;;
17235;SDS011;8734;59.272;17.780;2022-08-05T07:41:10;9.05;;;6.95;;
17235;SDS011;8734;59.272;17.780;2022-08-05T07:44:03;12.55;;;6.55;;
17235;SDS011;8734;59.272;17.780;2022-08-05T07:46:44;9.40;;;5.97;;
17235;SDS011;8734;59.272;17.780;2022-08-05T07:49:15;9.23;;;6.03;;
17235;SDS011;8734;59.272;17.780;2022-08-05T07:51:45;13.98;;;6.10;;
17235;SDS011;8734;59.272;17.780;2022-08-05T07:54:20;7.50;;;5.90;;
17235;SDS011;8734;59.272;17.780;2022-08-05T07:56:58;7.20;;;5.43;;
17235;SDS011;8734;59.272;17.780;2022-08-05T07:59:49;7.95;;;5.28;;
17235;SDS011;8734;59.272;17.780;2022-08-05T08:02:22;7.28;;;5.00;;
17235;SDS011;8734;59.272;17.780;2022-08-05T08:05:12;8.30;;;5.07;;
17235;SDS011;8734;59.272;17.780;2022-08-05T08:07:42;6.43;;;4.38;;
17235;SDS011;8734;59.272;17.780;2022-08-05T08:10:26;10.13;;;5.07;;
17235;SDS011;8734;59.272;17.780;2022-08-05T08:12:55;5.60;;;4.00;;
17235;SDS011;8734;59.272;17.780;2022-08-05T08:15:25;6.75;;;4.15;;
17235;SDS011;8734;59.272;17.780;2022-08-05T08:18:14;5.72;;;4.03;;
17235;SDS011;8734;59.272;17.780;2022-08-05T08:20:46;5.25;;;4.28;;
17235;SDS011;8734;59.272;17.780;2022-08-05T08:23:29;3.85;;;3.42;;
17235;SDS011;8734;59.272;17.780;2022-08-05T08:26:18;7.68;;;4.13;;
17235;SDS011;8734;59.272;17.780;2022-08-05T08:28:55;6.32;;;4.03;;
17235;SDS011;8734;59.272;17.780;2022-08-05T08:31:45;12.30;;;3.92;;
17235;SDS011;8734;59.272;17.780;2022-08-05T08:34:14;8.05;;;3.60;;
17235;SDS011;8734;59.272;17.780;2022-08-05T08:36:44;3.40;;;3.10;;
17235;SDS011;8734;59.272;17.780;2022-08-05T08:39:21;3.97;;;3.33;;
17235;SDS011;8734;59.272;17.780;2022-08-05T08:41:50;3.25;;;2.85;;
17235;SDS011;8734;59.272;17.780;2022-08-05T08:44:27;3.63;;;3.17;;
17235;SDS011;8734;59.272;17.780;2022-08-05T08:47:20;4.00;;;2.83;;
17235;SDS011;8734;59.272;17.780;2022-08-05T08:50:11;3.78;;;3.05;;
17235;SDS011;8734;59.272;17.780;2022-08-05T08:53:00;4.03;;;2.88;;
17235;SDS011;8734;59.272;17.780;2022-08-05T08:55:38;4.35;;;3.20;;
17235;SDS011;8734;59.272;17.780;2022-08-05T08:58:27;4.90;;;3.00;;
17235;SDS011;8734;59.272;17.780;2022-08-05T09:01:10;3.15;;;2.85;;
17235;SDS011;8734;59.272;17.780;2022-08-05T09:03:43;6.13;;;2.80;;
17235;SDS011;8734;59.272;17.780;2022-08-05T09:06:13;4.45;;;2.65;;
17235;SDS011;8734;59.272;17.780;2022-08-05T09:08:49;4.22;;;2.90;;
17235;SDS011;8734;59.272;17.780;2022-08-05T09:11:18;7.65;;;2.70;;
17235;SDS011;8734;59.272;17.780;2022-08-05T09:14:06;5.03;;;2.65;;
17235;SDS011;8734;59.272;17.780;2022-08-05T09:16:55;4.50;;;2.70;;
17235;SDS011;8734;59.272;17.780;2022-08-05T09:19:26;4.55;;;3.00;;
17235;SDS011;8734;59.272;17.780;2022-08-05T09:22:15;4.07;;;3.10;;
17235;SDS011;8734;59.272;17.780;2022-08-05T09:24:57;4.93;;;2.58;;
17235;SDS011;8734;59.272;17.780;2022-08-05T09:27:30;4.20;;;2.97;;
17235;SDS011;8734;59.272;17.780;2022-08-05T09:30:20;3.75;;;3.13;;
17235;SDS011;8734;59.272;17.780;2022-08-05T09:32:49;3.45;;;3.00;;
17235;SDS011;8734;59.272;17.780;2022-08-05T09:35:20;3.20;;;2.78;;
17235;SDS011;8734;59.272;17.780;2022-08-05T09:37:53;5.80;;;3.00;;
17235;SDS011;8734;59.272;17.780;2022-08-05T09:40:44;4.18;;;3.00;;
17235;SDS011;8734;59.272;17.780;2022-08-05T09:43:29;5.68;;;3.15;;
17235;SDS011;8734;59.272;17.780;2022-08-05T09:46:21;7.85;;;3.08;;
17235;SDS011;8734;59.272;17.780;2022-08-05T09:48:54;6.78;;;3.35;;
17235;SDS011;8734;59.272;17.780;2022-08-05T09:51:44;5.32;;;3.30;;
17235;SDS011;8734;59.272;17.780;2022-08-05T09:54:15;4.55;;;3.20;;
17235;SDS011;8734;59.272;17.780;2022-08-05T09:56:54;5.40;;;3.53;;
17235;SDS011;8734;59.272;17.780;2022-08-05T09:59:27;5.53;;;3.45;;
17235;SDS011;8734;59.272;17.780;2022-08-05T10:02:02;5.32;;;2.92;;
17235;SDS011;8734;59.272;17.780;2022-08-05T10:04:34;5.38;;;3.17;;
17235;SDS011;8734;59.272;17.780;2022-08-05T10:07:07;5.03;;;3.35;;
17235;SDS011;8734;59.272;17.780;2022-08-05T10:09:56;4.57;;;3.10;;
17235;SDS011;8734;59.272;17.780;2022-08-05T10:12:44;5.60;;;3.03;;
17235;SDS011;8734;59.272;17.780;2022-08-05T10:15:17;4.40;;;3.22;;
17235;SDS011;8734;59.272;17.780;2022-08-05T10:18:01;7.50;;;3.80;;
17235;SDS011;8734;59.272;17.780;2022-08-05T10:20:36;4.47;;;3.00;;
17235;SDS011;8734;59.272;17.780;2022-08-05T10:23:10;10.95;;;3.33;;
17235;SDS011;8734;59.272;17.780;2022-08-05T10:26:01;6.72;;;3.35;;
17235;SDS011;8734;59.272;17.780;2022-08-05T10:28:32;5.28;;;3.47;;
17235;SDS011;8734;59.272;17.780;2022-08-05T10:31:02;5.97;;;3.25;;
17235;SDS011;8734;59.272;17.780;2022-08-05T10:33:51;5.63;;;3.40;;
17235;SDS011;8734;59.272;17.780;2022-08-05T10:36:20;6.07;;;3.28;;
17235;SDS011;8734;59.272;17.780;2022-08-05T10:38:55;4.05;;;3.45;;
17235;SDS011;8734;59.272;17.780;2022-08-05T10:41:38;4.80;;;3.30;;
17235;SDS011;8734;59.272;17.780;2022-08-05T10:44:15;4.63;;;3.63;;
17235;SDS011;8734;59.272;17.780;2022-08-05T10:46:47;7.85;;;3.88;;
17235;SDS011;8734;59.272;17.780;2022-08-05T10:49:20;9.25;;;3.42;;
17235;SDS011;8734;59.272;17.780;2022-08-05T10:51:54;4.88;;;3.60;;
17235;SDS011;8734;59.272;17.780;2022-08-05T10:57:25;4.10;;;3.40;;
17235;SDS011;8734;59.272;17.780;2022-08-05T11:00:06;7.10;;;3.20;;
17235;SDS011;8734;59.272;17.780;2022-08-05T11:06:05;6.40;;;3.03;;
17235;SDS011;8734;59.272;17.780;2022-08-05T11:11:44;5.22;;;3.83;;
17235;SDS011;8734;59.272;17.780;2022-08-05T11:14:22;7.10;;;3.58;;
17235;SDS011;8734;59.272;17.780;2022-08-05T11:17:27;7.60;;;3.47;;
17235;SDS011;8734;59.272;17.780;2022-08-05T11:20:31;7.45;;;3.50;;
17235;SDS011;8734;59.272;17.780;2022-08-05T11:26:25;7.35;;;3.42;;
17235;SDS011;8734;59.272;17.780;2022-08-05T11:29:00;6.15;;;3.38;;
17235;SDS011;8734;59.272;17.780;2022-08-05T11:31:40;4.43;;;3.63;;
17235;SDS011;8734;59.272;17.780;2022-08-05T11:34:35;4.60;;;3.53;;
17235;SDS011;8734;59.272;17.780;2022-08-05T11:37:05;5.35;;;3.30;;
17235;SDS011;8734;59.272;17.780;2022-08-05T11:39:53;6.97;;;3.60;;
17235;SDS011;8734;59.272;17.780;2022-08-05T11:42:30;5.32;;;3.58;;
17235;SDS011;8734;59.272;17.780;2022-08-05T11:45:07;5.22;;;3.50;;
17235;SDS011;8734;59.272;17.780;2022-08-05T11:47:56;6.10;;;4.00;;
17235;SDS011;8734;59.272;17.780;2022-08-05T11:50:24;8.48;;;3.60;;
17235;SDS011;8734;59.272;17.780;2022-08-05T11:52:54;18.85;;;5.45;;
17235;SDS011;8734;59.272;17.780;2022-08-05T11:55:23;7.15;;;4.30;;
17235;SDS011;8734;59.272;17.780;2022-08-05T11:57:58;6.32;;;4.20;;
17235;SDS011;8734;59.272;17.780;2022-08-05T12:00:38;5.30;;;3.88;;
17235;SDS011;8734;59.272;17.780;2022-08-05T12:03:15;6.00;;;3.78;;
17235;SDS011;8734;59.272;17.780;2022-08-05T12:06:00;4.93;;;4.10;;
17235;SDS011;8734;59.272;17.780;2022-08-05T12:08:38;8.50;;;4.70;;
17235;SDS011;8734;59.272;17.780;2022-08-05T12:11:17;8.15;;;4.68;;
17235;SDS011;8734;59.272;17.780;2022-08-05T12:13:53;8.27;;;4.50;;
17235;SDS011;8734;59.272;17.780;2022-08-05T12:16:33;10.98;;;5.20;;
17235;SDS011;8734;59.272;17.780;2022-08-05T12:19:04;7.40;;;5.82;;
17235;SDS011;8734;59.272;17.780;2022-08-05T12:21:34;8.70;;;5.55;;
17235;SDS011;8734;59.272;17.780;2022-08-05T12:24:09;13.45;;;6.90;;
17235;SDS011;8734;59.272;17.780;2022-08-05T12:26:43;13.18;;;6.82;;
17235;SDS011;8734;59.272;17.780;2022-08-05T12:29:15;12.43;;;7.20;;
17235;SDS011;8734;59.272;17.780;2022-08-05T12:31:50;13.10;;;8.03;;
17235;SDS011;8734;59.272;17.780;2022-08-05T12:34:21;13.83;;;8.67;;
17235;SDS011;8734;59.272;17.780;2022-08-05T12:36:54;16.33;;;9.17;;
17235;SDS011;8734;59.272;17.780;2022-08-05T12:39:24;16.63;;;11.33;;
17235;SDS011;8734;59.272;17.780;2022-08-05T12:42:06;17.70;;;10.53;;
17235;SDS011;8734;59.272;17.780;2022-08-05T12:44:40;18.67;;;10.77;;
17235;SDS011;8734;59.272;17.780;2022-08-05T12:47:11;21.37;;;10.10;;
17235;SDS011;8734;59.272;17.780;2022-08-05T12:49:43;16.77;;;10.07;;
17235;SDS011;8734;59.272;17.780;2022-08-05T12:52:31;14.27;;;9.47;;
17235;SDS011;8734;59.272;17.780;2022-08-05T12:55:21;14.97;;;8.93;;
17235;SDS011;8734;59.272;17.780;2022-08-05T12:57:52;14.23;;;9.83;;
17235;SDS011;8734;59.272;17.780;2022-08-05T13:00:42;16.37;;;10.67;;
17235;SDS011;8734;59.272;17.780;2022-08-05T13:03:34;16.50;;;9.67;;
17235;SDS011;8734;59.272;17.780;2022-08-05T13:06:11;25.30;;;11.20;;
17235;SDS011;8734;59.272;17.780;2022-08-05T13:08:43;22.17;;;11.97;;
17235;SDS011;8734;59.272;17.780;2022-08-05T13:11:18;17.30;;;11.10;;
17235;SDS011;8734;59.272;17.780;2022-08-05T13:14:20;19.87;;;12.67;;
17235;SDS011;8734;59.272;17.780;2022-08-05T13:17:02;24.63;;;14.03;;
17235;SDS011;8734;59.272;17.780;2022-08-05T13:19:36;28.77;;;14.40;;
17235;SDS011;8734;59.272;17.780;2022-08-05T13:22:19;13.87;;;10.87;;
17235;SDS011;8734;59.272;17.780;2022-08-05T13:24:57;17.23;;;9.90;;
17235;SDS011;8734;59.272;17.780;2022-08-05T13:27:32;13.77;;;9.23;;
17235;SDS011;8734;59.272;17.780;2022-08-05T13:30:05;13.53;;;8.47;;
17235;SDS011;8734;59.272;17.780;2022-08-05T13:32:55;12.73;;;9.50;;
17235;SDS011;8734;59.272;17.780;2022-08-05T13:35:28;16.93;;;10.40;;
17235;SDS011;8734;59.272;17.780;2022-08-05T13:38:17;10.90;;;8.13;;
17235;SDS011;8734;59.272;17.780;2022-08-05T13:40:59;11.47;;;7.57;;
17235;SDS011;8734;59.272;17.780;2022-08-05T13:43:28;8.43;;;6.60;;
17235;SDS011;8734;59.272;17.780;2022-08-05T13:46:17;10.13;;;7.10;;
17235;SDS011;8734;59.272;17.780;2022-08-05T13:49:05;13.43;;;7.50;;
17235;SDS011;8734;59.272;17.780;2022-08-05T13:51:38;14.97;;;8.10;;
17235;SDS011;8734;59.272;17.780;2022-08-05T13:54:12;17.20;;;8.53;;
17235;SDS011;8734;59.272;17.780;2022-08-05T13:56:42;13.73;;;8.30;;
17235;SDS011;8734;59.272;17.780;2022-08-05T13:59:17;10.27;;;7.37;;
17235;SDS011;8734;59.272;17.780;2022-08-05T14:01:49;17.87;;;8.30;;
17235;SDS011;8734;59.272;17.780;2022-08-05T14:04:23;14.27;;;8.30;;
17235;SDS011;8734;59.272;17.780;2022-08-05T14:07:17;11.33;;;8.13;;
17235;SDS011;8734;59.272;17.780;2022-08-05T14:10:07;18.93;;;11.03;;
17235;SDS011;8734;59.272;17.780;2022-08-05T14:12:37;18.93;;;11.30;;
17235;SDS011;8734;59.272;17.780;2022-08-05T14:15:14;16.73;;;11.73;;
17235;SDS011;8734;59.272;17.780;2022-08-05T14:18:03;16.83;;;12.40;;
17235;SDS011;8734;59.272;17.780;2022-08-05T14:20:44;17.13;;;12.67;;
17235;SDS011;8734;59.272;17.780;2022-08-05T14:23:15;17.97;;;12.43;;
17235;SDS011;8734;59.272;17.780;2022-08-05T14:25:50;18.47;;;12.70;;
17235;SDS011;8734;59.272;17.780;2022-08-05T14:28:19;15.17;;;11.17;;
17235;SDS011;8734;59.272;17.780;2022-08-05T14:30:53;15.63;;;12.50;;
17235;SDS011;8734;59.272;17.780;2022-08-05T14:33:21;23.90;;;13.10;;
17235;SDS011;8734;59.272;17.780;2022-08-05T14:35:49;17.60;;;11.23;;
17235;SDS011;8734;59.272;17.780;2022-08-05T14:38:21;18.40;;;11.03;;
17235;SDS011;8734;59.272;17.780;2022-08-05T14:40:59;14.83;;;11.00;;
17235;SDS011;8734;59.272;17.780;2022-08-05T14:43:32;13.37;;;10.13;;
17235;SDS011;8734;59.272;17.780;2022-08-05T14:46:22;13.10;;;10.50;;
17235;SDS011;8734;59.272;17.780;2022-08-05T14:48:54;14.23;;;10.77;;
17235;SDS011;8734;59.272;17.780;2022-08-05T14:51:24;16.70;;;11.00;;
17235;SDS011;8734;59.272;17.780;2022-08-05T14:53:58;15.30;;;9.73;;
17235;SDS011;8734;59.272;17.780;2022-08-05T14:56:46;16.53;;;10.40;;
17235;SDS011;8734;59.272;17.780;2022-08-05T14:59:19;12.63;;;9.37;;
17235;SDS011;8734;59.272;17.780;2022-08-05T15:01:48;14.73;;;9.73;;
17235;SDS011;8734;59.272;17.780;2022-08-05T15:04:19;12.83;;;10.33;;
17235;SDS011;8734;59.272;17.780;2022-08-05T15:06:52;11.90;;;9.10;;
17235;SDS011;8734;59.272;17.780;2022-08-05T15:09:22;13.43;;;8.90;;
17235;SDS011;8734;59.272;17.780;2022-08-05T15:12:10;9.60;;;8.07;;
17235;SDS011;8734;59.272;17.780;2022-08-05T15:14:52;9.27;;;7.60;;
17235;SDS011;8734;59.272;17.780;2022-08-05T15:17:21;11.07;;;8.30;;
17235;SDS011;8734;59.272;17.780;2022-08-05T15:20:10;16.27;;;8.27;;
17235;SDS011;8734;59.272;17.780;2022-08-05T15:22:44;10.60;;;8.07;;
17235;SDS011;8734;59.272;17.780;2022-08-05T15:25:21;7.97;;;7.17;;
17235;SDS011;8734;59.272;17.780;2022-08-05T15:28:12;7.33;;;6.13;;
17235;SDS011;8734;59.272;17.780;2022-08-05T15:30:42;12.13;;;6.13;;
17235;SDS011;8734;59.272;17.780;2022-08-05T15:33:12;6.17;;;5.27;;
17235;SDS011;8734;59.272;17.780;2022-08-05T15:36:00;28.47;;;7.87;;
17235;SDS011;8734;59.272;17.780;2022-08-05T15:38:30;6.47;;;4.83;;
17235;SDS011;8734;59.272;17.780;2022-08-05T15:41:08;6.73;;;4.90;;
17235;SDS011;8734;59.272;17.780;2022-08-05T15:43:49;6.90;;;4.57;;